createdAt,value
2023-05-19T00:00:53.365Z,3.03
2023-05-19T00:03:21.656Z,3.22
2023-05-19T00:05:48.665Z,2.55
2023-05-19T00:08:19.326Z,2.35
2023-05-19T00:10:46.394Z,2.53
2023-05-19T00:13:14.591Z,2.60
2023-05-19T00:15:41.476Z,3.17
2023-05-19T00:18:08.928Z,2.42
2023-05-19T00:20:35.441Z,2.88
2023-05-19T00:23:01.904Z,2.45
2023-05-19T00:25:28.348Z,2.67
2023-05-19T00:27:54.690Z,3.13
2023-05-19T00:30:22.784Z,2.72
2023-05-19T00:32:49.264Z,3.08
2023-05-19T00:35:16.227Z,2.58
2023-05-19T00:37:42.568Z,2.70
2023-05-19T00:40:10.155Z,2.50
2023-05-19T00:42:36.829Z,2.67
2023-05-19T00:45:03.508Z,2.78
2023-05-19T00:47:29.937Z,3.10
2023-05-19T00:49:56.429Z,2.78
2023-05-19T00:52:23.180Z,3.25
2023-05-19T00:54:51.305Z,2.65
2023-05-19T00:57:18.006Z,2.90
2023-05-19T00:59:44.758Z,3.38
2023-05-19T01:02:11.163Z,2.80
2023-05-19T01:04:39.406Z,2.88
2023-05-19T01:07:07.038Z,3.30
2023-05-19T01:09:33.797Z,2.65
2023-05-19T01:12:01.340Z,2.58
2023-05-19T01:14:28.803Z,2.80
2023-05-19T01:17:05.494Z,3.05
2023-05-19T01:19:54.693Z,3.00
2023-05-19T01:22:54.826Z,2.65
2023-05-19T01:25:44.514Z,2.88
2023-05-19T01:28:20.272Z,3.03
2023-05-19T01:30:52.782Z,2.67
2023-05-19T01:33:22.145Z,3.55
2023-05-19T01:38:17.679Z,3.30
2023-05-19T01:40:45.249Z,3.45
2023-05-19T01:43:17.764Z,3.30
2023-05-19T01:45:45.268Z,2.88
2023-05-19T01:48:13.296Z,3.20
2023-05-19T01:50:41.144Z,2.65
2023-05-19T01:53:07.961Z,3.00
2023-05-19T01:55:39.450Z,3.63
2023-05-19T01:58:13.721Z,2.80
2023-05-19T02:00:56.384Z,3.28
2023-05-19T02:03:42.310Z,2.72
2023-05-19T02:06:36.787Z,3.28
2023-05-19T02:09:16.102Z,2.95
2023-05-19T02:12:08.635Z,3.78
2023-05-19T02:15:06.183Z,3.80
2023-05-19T02:17:40.054Z,3.05
2023-05-19T02:20:08.724Z,3.17
2023-05-19T02:22:35.832Z,3.33
2023-05-19T02:25:02.433Z,3.75
2023-05-19T02:27:29.818Z,3.63
2023-05-19T02:29:56.384Z,3.70
2023-05-19T02:32:22.727Z,3.03
2023-05-19T02:34:49.115Z,3.25
2023-05-19T02:37:16.219Z,4.65
2023-05-19T02:39:43.142Z,3.85
2023-05-19T02:42:09.872Z,3.33
2023-05-19T02:44:36.355Z,3.65
2023-05-19T02:47:02.840Z,3.85
2023-05-19T02:49:35.855Z,3.45
2023-05-19T02:52:03.320Z,3.33
2023-05-19T02:54:33.981Z,3.05
2023-05-19T02:57:01.116Z,3.45
2023-05-19T02:59:27.507Z,3.13
2023-05-19T03:02:00.330Z,4.63
2023-05-19T03:04:27.445Z,3.47
2023-05-19T03:06:54.166Z,3.47
2023-05-19T03:09:20.881Z,3.83
2023-05-19T03:11:47.301Z,3.90
2023-05-19T03:14:13.971Z,3.75
2023-05-19T03:16:42.066Z,3.50
2023-05-19T03:19:09.509Z,3.65
2023-05-19T03:21:36.083Z,4.43
2023-05-19T03:24:02.662Z,4.88
2023-05-19T03:26:31.658Z,3.92
2023-05-19T03:28:58.091Z,4.32
2023-05-19T03:31:24.490Z,3.70
2023-05-19T03:33:50.864Z,3.83
2023-05-19T03:36:17.527Z,4.35
2023-05-19T03:38:43.924Z,3.88
2023-05-19T03:41:10.431Z,6.18
2023-05-19T03:43:36.838Z,6.20
2023-05-19T03:46:03.315Z,7.22
2023-05-19T03:48:29.922Z,8.77
2023-05-19T03:50:56.314Z,7.55
2023-05-19T03:53:22.829Z,4.50
2023-05-19T03:55:50.581Z,4.80
2023-05-19T03:58:16.971Z,5.68
2023-05-19T04:00:43.336Z,3.90
2023-05-19T04:03:09.846Z,4.38
2023-05-19T04:05:37.530Z,4.15
2023-05-19T04:08:03.975Z,4.20
2023-05-19T04:10:30.891Z,5.00
2023-05-19T04:12:57.636Z,4.22
2023-05-19T04:15:24.177Z,4.20
2023-05-19T04:17:50.564Z,6.07
2023-05-19T04:20:17.018Z,5.22
2023-05-19T04:22:43.404Z,5.35
2023-05-19T04:25:10.144Z,6.03
2023-05-19T04:27:38.993Z,7.47
2023-05-19T04:30:06.278Z,7.20
2023-05-19T04:32:33.059Z,6.32
2023-05-19T04:34:59.528Z,6.32
2023-05-19T04:37:26.645Z,5.88
2023-05-19T04:39:54.124Z,6.57
2023-05-19T04:42:20.553Z,5.05
2023-05-19T04:44:49.223Z,6.05
2023-05-19T04:47:15.884Z,7.10
2023-05-19T04:49:42.857Z,5.18
2023-05-19T04:52:11.551Z,5.82
2023-05-19T04:54:39.196Z,4.50
2023-05-19T04:57:06.329Z,6.18
2023-05-19T04:59:32.844Z,4.72
2023-05-19T05:01:59.333Z,4.32
2023-05-19T05:04:25.900Z,4.15
2023-05-19T05:06:52.253Z,4.03
2023-05-19T05:09:19.779Z,4.30
2023-05-19T05:11:46.645Z,5.15
2023-05-19T05:14:13.350Z,4.15
2023-05-19T05:16:40.019Z,4.35
2023-05-19T05:19:06.899Z,4.50
2023-05-19T05:21:33.684Z,4.30
2023-05-19T05:24:00.338Z,6.63
2023-05-19T05:26:33.072Z,3.90
2023-05-19T05:28:59.760Z,3.65
2023-05-19T05:31:26.405Z,3.67
2023-05-19T05:33:52.810Z,3.88
2023-05-19T05:36:19.298Z,3.95
2023-05-19T05:38:45.804Z,3.65
2023-05-19T05:41:12.191Z,3.30
2023-05-19T05:43:38.669Z,3.83
2023-05-19T05:46:05.354Z,4.25
2023-05-19T05:48:32.060Z,4.30
2023-05-19T05:50:59.255Z,3.88
2023-05-19T05:53:26.877Z,3.25
2023-05-19T05:55:53.682Z,3.33
2023-05-19T05:58:21.169Z,4.55
2023-05-19T06:00:49.279Z,3.25
2023-05-19T06:03:16.840Z,3.03
2023-05-19T06:05:43.428Z,2.95
2023-05-19T06:08:09.893Z,3.25
2023-05-19T06:10:38.616Z,3.60
2023-05-19T06:13:05.236Z,2.63
2023-05-19T06:15:31.983Z,2.78
2023-05-19T06:17:59.053Z,3.22
2023-05-19T06:20:25.642Z,2.72
2023-05-19T06:22:52.118Z,3.20
2023-05-19T06:25:18.590Z,2.72
2023-05-19T06:27:45.051Z,3.05
2023-05-19T06:30:12.361Z,2.53
2023-05-19T06:32:38.842Z,2.65
2023-05-19T06:35:05.600Z,2.70
2023-05-19T06:37:31.958Z,2.40
2023-05-19T06:39:58.390Z,2.90
2023-05-19T06:42:25.382Z,3.15
2023-05-19T06:44:52.927Z,2.30
2023-05-19T06:47:19.589Z,2.55
2023-05-19T06:49:46.324Z,2.63
2023-05-19T06:52:12.763Z,2.47
2023-05-19T06:54:39.186Z,2.65
2023-05-19T06:57:05.611Z,2.15
2023-05-19T06:59:32.090Z,2.40
2023-05-19T07:01:58.594Z,2.58
2023-05-19T07:04:25.227Z,2.70
2023-05-19T07:06:51.617Z,2.38
2023-05-19T07:09:18.227Z,2.22
2023-05-19T07:11:45.005Z,2.40
2023-05-19T07:14:11.434Z,2.50
2023-05-19T07:16:37.817Z,2.08
2023-05-19T07:19:04.242Z,2.40
2023-05-19T07:21:30.677Z,2.95
2023-05-19T07:23:57.210Z,2.00
2023-05-19T07:26:23.614Z,2.30
2023-05-19T07:28:50.016Z,2.20
2023-05-19T07:31:17.002Z,2.00
2023-05-19T07:33:43.431Z,2.42
2023-05-19T07:36:09.927Z,2.70
2023-05-19T07:38:36.491Z,2.30
2023-05-19T07:41:03.793Z,2.95
2023-05-19T07:43:30.219Z,2.40
2023-05-19T07:45:56.693Z,2.50
2023-05-19T07:48:25.587Z,2.47
2023-05-19T07:50:53.108Z,2.53
2023-05-19T07:53:20.020Z,2.60
2023-05-19T07:55:46.633Z,2.30
2023-05-19T07:58:13.080Z,2.42
2023-05-19T08:00:40.950Z,2.22
2023-05-19T08:03:07.950Z,2.90
2023-05-19T08:05:36.044Z,2.40
2023-05-19T08:08:02.806Z,2.67
2023-05-19T08:10:29.196Z,2.30
2023-05-19T08:12:55.810Z,3.25
2023-05-19T08:15:22.229Z,2.20
2023-05-19T08:17:48.673Z,2.60
2023-05-19T08:20:15.244Z,1.85
2023-05-19T08:22:41.596Z,2.00
2023-05-19T08:25:09.509Z,2.30
2023-05-19T08:27:36.371Z,2.67
2023-05-19T08:30:02.837Z,2.33
2023-05-19T08:32:29.242Z,3.80
2023-05-19T08:34:55.722Z,2.30
2023-05-19T08:37:22.141Z,2.45
2023-05-19T08:39:48.676Z,2.40
2023-05-19T08:42:15.319Z,2.40
2023-05-19T08:44:43.881Z,2.00
2023-05-19T08:47:13.878Z,1.88
2023-05-19T08:49:45.605Z,2.22
2023-05-19T08:52:25.206Z,2.35
2023-05-19T08:55:05.747Z,2.20
2023-05-19T08:57:32.845Z,2.42
2023-05-19T09:00:00.184Z,2.20
2023-05-19T09:02:27.439Z,2.10
2023-05-19T09:04:54.486Z,2.95
2023-05-19T09:07:22.886Z,1.83
2023-05-19T09:09:49.396Z,2.10
2023-05-19T09:12:16.134Z,2.40
2023-05-19T09:14:42.957Z,2.28
2023-05-19T09:17:09.710Z,2.25
2023-05-19T10:44:39.893Z,2.40
2023-05-19T10:47:07.672Z,2.45
2023-05-19T10:49:36.572Z,2.53
2023-05-19T10:52:03.825Z,2.70
2023-05-19T10:54:46.619Z,2.20
2023-05-19T10:57:17.552Z,2.55
2023-05-19T10:59:44.760Z,2.33
2023-05-19T11:02:37.144Z,2.38
2023-05-19T11:05:14.959Z,2.15
2023-05-19T11:07:44.158Z,2.47
2023-05-19T11:10:11.309Z,2.28
2023-05-19T11:12:45.965Z,2.50
2023-05-19T11:15:14.761Z,2.20
2023-05-19T11:20:26.198Z,2.35
2023-05-19T11:23:09.654Z,2.03
2023-05-19T11:25:51.425Z,2.10
2023-05-19T11:28:20.537Z,1.98
2023-05-19T11:30:52.805Z,2.20
2023-05-19T11:33:20.532Z,2.53
2023-05-19T11:35:49.391Z,2.00
2023-05-19T11:38:18.635Z,2.13
2023-05-19T11:40:45.351Z,2.35
2023-05-19T11:43:13.745Z,2.30
2023-05-19T11:45:40.312Z,2.45
2023-05-19T11:48:10.882Z,2.25
2023-05-19T11:50:38.386Z,2.25
2023-05-19T11:53:05.180Z,2.20
2023-05-19T11:55:35.020Z,2.50
2023-05-19T11:58:05.127Z,2.42
2023-05-19T12:00:38.969Z,2.17
2023-05-19T12:03:06.873Z,2.45
2023-05-19T12:05:39.863Z,2.15
2023-05-19T12:10:35.918Z,2.70
2023-05-19T12:13:03.060Z,2.28
2023-05-19T12:15:31.622Z,2.13
2023-05-19T12:20:31.961Z,3.13
2023-05-19T12:23:00.420Z,2.17
2023-05-19T12:25:27.525Z,2.08
2023-05-19T12:27:58.954Z,2.40
2023-05-19T12:30:29.727Z,2.60
2023-05-19T12:32:57.930Z,2.40
2023-05-19T12:35:35.917Z,2.38
2023-05-19T12:38:09.000Z,2.47
2023-05-19T12:40:36.786Z,2.30
2023-05-19T12:43:04.074Z,2.08
2023-05-19T12:45:35.338Z,1.98
2023-05-19T12:48:18.222Z,2.53
2023-05-19T12:50:45.146Z,1.83
2023-05-19T12:53:14.843Z,2.25
2023-05-19T12:55:45.241Z,2.22
2023-05-19T12:58:13.640Z,2.22
2023-05-19T13:00:45.464Z,2.80
2023-05-19T13:03:22.346Z,2.45
2023-05-19T13:05:50.766Z,2.15
2023-05-19T13:08:20.036Z,2.72
2023-05-19T13:10:47.475Z,2.20
2023-05-19T13:13:14.074Z,2.20
2023-05-19T13:15:43.219Z,2.03
2023-05-19T13:18:11.323Z,1.95
2023-05-19T13:20:39.321Z,1.90
2023-05-19T13:23:06.614Z,1.90
2023-05-19T13:25:34.317Z,1.80
2023-05-19T13:28:03.843Z,2.05
2023-05-19T13:30:32.001Z,2.88
2023-05-19T13:32:59.863Z,1.90
2023-05-19T13:35:26.466Z,2.10
2023-05-19T13:37:53.102Z,2.58
2023-05-19T13:40:19.625Z,1.95
2023-05-19T13:42:46.427Z,1.90
2023-05-19T13:45:13.613Z,2.42
2023-05-19T13:47:40.036Z,2.05
2023-05-19T13:50:07.112Z,1.88
2023-05-19T13:52:33.718Z,2.13
2023-05-19T13:55:00.219Z,2.22
2023-05-19T13:57:26.701Z,1.80
2023-05-19T14:00:01.779Z,1.77
2023-05-19T14:02:29.824Z,2.30
2023-05-19T14:04:56.783Z,2.22
2023-05-19T14:07:23.604Z,2.22
2023-05-19T14:09:51.218Z,2.47
2023-05-19T14:12:17.856Z,2.35
2023-05-19T14:14:44.575Z,2.00
2023-05-19T14:17:11.007Z,2.00
2023-05-19T14:19:37.524Z,1.80
2023-05-19T14:22:04.442Z,2.28
2023-05-19T14:24:30.916Z,1.83
2023-05-19T14:26:57.627Z,2.05
2023-05-19T14:29:24.039Z,2.20
2023-05-19T14:31:50.552Z,2.33
2023-05-19T14:34:20.804Z,2.47
2023-05-19T14:36:48.696Z,2.42
2023-05-19T14:39:15.449Z,2.33
2023-05-19T14:41:41.833Z,2.90
2023-05-19T14:44:08.275Z,4.15
2023-05-19T14:46:34.945Z,2.88
2023-05-19T14:49:01.479Z,2.72
2023-05-19T14:51:28.005Z,2.13
2023-05-19T14:53:54.431Z,2.47
2023-05-19T14:56:22.522Z,3.10
2023-05-19T14:58:49.132Z,2.47
2023-05-19T15:01:15.707Z,3.15
2023-05-19T15:03:42.218Z,3.05
2023-05-19T15:06:10.510Z,2.22
2023-05-19T15:08:41.361Z,2.40
2023-05-19T15:11:08.089Z,2.55
2023-05-19T15:13:34.593Z,4.78
2023-05-19T15:16:15.541Z,2.05
2023-05-19T15:18:43.807Z,2.75
2023-05-19T15:21:10.334Z,1.75
2023-05-19T15:23:36.722Z,2.88
2023-05-19T15:26:03.254Z,3.55
2023-05-19T15:28:29.765Z,2.10
2023-05-19T15:30:56.391Z,1.88
2023-05-19T15:33:22.949Z,2.00
2023-05-19T15:35:51.631Z,2.20
2023-05-19T15:38:19.262Z,1.98
2023-05-19T15:40:46.553Z,2.38
2023-05-19T15:43:13.103Z,2.40
2023-05-19T15:45:40.788Z,1.75
2023-05-19T15:48:07.553Z,2.17
2023-05-19T15:50:34.281Z,2.00
2023-05-19T15:53:00.910Z,2.05
2023-05-19T15:55:27.490Z,2.00
2023-05-19T15:57:53.883Z,2.05
2023-05-19T16:00:20.562Z,2.13
2023-05-19T16:02:47.320Z,2.30
2023-05-19T16:05:14.251Z,1.70
2023-05-19T16:07:41.941Z,1.95
2023-05-19T16:10:08.749Z,2.10
2023-05-19T16:12:36.404Z,2.00
2023-05-19T16:15:03.080Z,2.30
2023-05-19T16:17:29.538Z,2.50
2023-05-19T16:19:55.971Z,2.53
2023-05-19T16:22:24.614Z,2.03
2023-05-19T16:24:51.793Z,2.00
2023-05-19T16:27:20.808Z,2.30
2023-05-19T16:29:48.789Z,2.42
2023-05-19T16:32:15.363Z,2.42
2023-05-19T16:34:41.833Z,1.85
2023-05-19T16:37:08.578Z,2.22
2023-05-19T16:39:37.991Z,2.00
2023-05-19T16:42:05.112Z,2.00
2023-05-19T16:44:34.156Z,2.40
2023-05-19T16:47:00.868Z,2.13
2023-05-19T16:49:27.234Z,2.05
2023-05-19T16:51:54.116Z,2.45
2023-05-19T16:54:21.556Z,2.15
2023-05-19T16:56:48.041Z,2.08
2023-05-19T16:59:14.479Z,2.17
2023-05-19T17:01:41.379Z,2.10
2023-05-19T17:04:08.212Z,2.20
2023-05-19T17:06:34.751Z,2.15
2023-05-19T17:09:01.794Z,2.35
2023-05-19T17:11:28.257Z,2.22
2023-05-19T17:13:54.676Z,2.03
2023-05-19T17:16:21.540Z,2.67
2023-05-19T17:18:48.105Z,2.40
2023-05-19T17:21:14.630Z,2.10
2023-05-19T17:23:41.868Z,2.17
2023-05-19T17:26:11.626Z,2.50
2023-05-19T17:28:38.053Z,2.53
2023-05-19T17:31:12.313Z,2.20
2023-05-19T17:33:39.433Z,2.33
2023-05-19T17:36:06.919Z,2.42
2023-05-19T17:38:33.594Z,2.13
2023-05-19T17:41:01.202Z,2.60
2023-05-19T17:43:28.016Z,2.10
2023-05-19T17:45:54.644Z,2.40
2023-05-19T17:48:21.183Z,1.90
2023-05-19T17:50:48.148Z,2.67
2023-05-19T17:53:18.552Z,2.17
2023-05-19T17:55:52.993Z,2.30
2023-05-19T17:58:20.121Z,2.55
2023-05-19T18:00:49.332Z,2.78
2023-05-19T18:03:16.640Z,2.33
2023-05-19T18:05:44.631Z,2.33
2023-05-19T18:08:13.034Z,2.13
2023-05-19T18:10:42.125Z,2.17
2023-05-19T18:13:10.492Z,2.17
2023-05-19T18:15:37.194Z,2.22
2023-05-19T18:18:05.581Z,2.83
2023-05-19T18:20:33.834Z,2.20
2023-05-19T18:23:00.953Z,2.70
2023-05-19T18:25:27.476Z,2.13
2023-05-19T18:27:55.710Z,2.60
2023-05-19T18:30:23.210Z,2.55
2023-05-19T18:32:49.727Z,2.47
2023-05-19T18:35:16.526Z,2.00
2023-05-19T18:37:42.997Z,2.28
2023-05-19T18:40:09.841Z,2.28
2023-05-19T18:42:38.876Z,1.83
2023-05-19T18:45:06.227Z,2.10
2023-05-19T18:47:32.730Z,2.60
2023-05-19T18:49:59.165Z,2.53
2023-05-19T18:52:26.761Z,2.75
2023-05-19T18:54:53.466Z,2.35
2023-05-19T18:57:20.514Z,2.58
2023-05-19T18:59:47.553Z,2.20
2023-05-19T19:02:14.221Z,2.70
2023-05-19T19:04:40.799Z,2.55
2023-05-19T19:07:07.411Z,2.38
2023-05-19T19:09:34.035Z,2.28
2023-05-19T19:12:00.561Z,2.30
2023-05-19T19:14:26.930Z,2.60
2023-05-19T19:16:53.507Z,2.63
2023-05-19T19:19:20.336Z,2.30
2023-05-19T19:21:46.869Z,2.40
2023-05-19T19:24:13.745Z,2.38
2023-05-19T19:26:40.392Z,2.40
2023-05-19T19:29:07.010Z,2.45
2023-05-19T19:31:33.633Z,2.67
2023-05-19T19:34:03.628Z,2.85
2023-05-19T19:36:30.315Z,2.55
2023-05-19T19:38:57.043Z,2.83
2023-05-19T19:41:25.034Z,2.10
2023-05-19T19:43:51.679Z,2.10
2023-05-19T19:46:18.162Z,2.55
2023-05-19T19:48:44.674Z,5.85
2023-05-19T19:51:11.187Z,2.97
2023-05-19T19:53:37.603Z,2.47
2023-05-19T19:56:05.073Z,2.22
2023-05-19T19:58:31.579Z,2.83
2023-05-19T20:01:05.757Z,2.65
2023-05-19T20:03:33.350Z,2.53
2023-05-19T20:05:59.983Z,2.08
2023-05-19T20:08:27.021Z,2.45
2023-05-19T20:10:53.969Z,2.53
2023-05-19T20:13:23.418Z,3.08
2023-05-19T20:15:49.937Z,2.28
2023-05-19T20:18:16.514Z,2.97
2023-05-19T20:20:43.054Z,2.30
2023-05-19T20:23:13.265Z,2.38
2023-05-19T20:25:57.931Z,2.28
2023-05-19T20:28:29.514Z,2.17
2023-05-19T20:30:56.027Z,2.40
2023-05-19T20:33:22.546Z,2.25
2023-05-19T20:35:51.425Z,2.13
2023-05-19T20:38:17.875Z,2.25
2023-05-19T20:40:44.312Z,2.08
2023-05-19T20:43:10.894Z,2.25
2023-05-19T20:45:37.734Z,2.47
2023-05-19T20:48:04.714Z,4.03
2023-05-19T20:50:31.897Z,2.00
2023-05-19T20:52:58.555Z,2.03
2023-05-19T20:55:24.900Z,2.38
2023-05-19T20:57:51.401Z,2.22
2023-05-19T21:00:18.164Z,2.42
2023-05-19T21:02:44.704Z,2.22
2023-05-19T21:05:11.453Z,2.10
2023-05-19T21:07:38.025Z,2.17
2023-05-19T21:10:04.900Z,2.15
2023-05-19T21:12:33.992Z,2.17
2023-05-19T21:15:01.522Z,2.15
2023-05-19T21:17:28.051Z,2.90
2023-05-19T21:19:57.743Z,2.22
2023-05-19T21:22:24.862Z,2.25
2023-05-19T21:24:51.550Z,2.10
2023-05-19T21:27:18.195Z,2.70
2023-05-19T21:29:44.732Z,2.03
2023-05-19T21:32:11.174Z,2.45
2023-05-19T21:34:38.815Z,2.45
2023-05-19T21:37:05.598Z,2.30
2023-05-19T21:39:32.135Z,2.40
2023-05-19T21:41:58.538Z,2.25
2023-05-19T21:44:25.275Z,2.33
2023-05-19T21:46:51.857Z,2.13
2023-05-19T21:49:18.660Z,2.65
2023-05-19T21:51:45.309Z,2.35
2023-05-19T21:54:11.759Z,2.17
2023-05-19T21:56:38.467Z,2.45
2023-05-19T21:59:04.975Z,2.63
2023-05-19T22:01:34.046Z,2.28
2023-05-19T22:06:27.676Z,3.03
2023-05-19T22:08:55.372Z,2.20
2023-05-19T22:11:25.948Z,2.28
2023-05-19T22:13:54.966Z,2.42
2023-05-19T22:18:48.183Z,2.25
2023-05-19T22:21:14.801Z,2.63
2023-05-19T22:23:41.398Z,2.55
2023-05-19T22:26:07.960Z,2.13
2023-05-19T22:28:34.629Z,2.63
2023-05-19T22:31:01.287Z,2.35
2023-05-19T22:33:27.876Z,2.45
2023-05-19T22:35:54.637Z,2.40
2023-05-19T22:38:21.246Z,2.50
2023-05-19T22:40:48.002Z,2.58
2023-05-19T22:43:14.642Z,2.85
2023-05-19T22:45:41.277Z,2.58
2023-05-19T22:48:08.159Z,2.50
2023-05-19T22:50:34.675Z,2.78
2023-05-19T22:53:01.484Z,2.85
2023-05-19T22:55:30.753Z,2.50
2023-05-19T22:57:57.375Z,2.90
2023-05-19T23:00:24.076Z,2.85
2023-05-19T23:02:51.249Z,2.47
2023-05-19T23:05:17.932Z,2.65
2023-05-19T23:07:44.465Z,2.80
2023-05-19T23:10:11.037Z,2.97
2023-05-19T23:12:37.976Z,2.97
2023-05-19T23:15:04.920Z,3.15
2023-05-19T23:17:31.686Z,2.63
2023-05-19T23:19:58.309Z,3.03
2023-05-19T23:22:24.848Z,3.00
2023-05-19T23:24:51.498Z,3.13
2023-05-19T23:27:18.024Z,2.97
2023-05-19T23:29:49.358Z,2.72
2023-05-19T23:32:15.948Z,2.55
2023-05-19T23:34:42.544Z,3.33
2023-05-19T23:37:08.968Z,2.70
2023-05-19T23:39:35.507Z,2.83
2023-05-19T23:42:02.000Z,2.65
2023-05-19T23:44:28.617Z,2.50
2023-05-19T23:46:57.492Z,3.00
2023-05-19T23:49:26.853Z,2.65
2023-05-19T23:51:53.342Z,3.38
2023-05-19T23:54:19.798Z,3.03
2023-05-19T23:56:46.303Z,2.95
2023-05-19T23:59:12.769Z,3.17
